createdAt,value
2023-05-20T00:00:24.526Z,102964.31
2023-05-20T00:02:26.293Z,102958.00
2023-05-20T00:04:28.091Z,102959.03
2023-05-20T00:06:29.788Z,102956.31
2023-05-20T00:08:33.079Z,102961.75
2023-05-20T00:10:35.054Z,102966.50
2023-05-20T00:12:38.456Z,102963.09
2023-05-20T00:14:40.115Z,102969.56
2023-05-20T00:16:41.703Z,102959.66
2023-05-20T00:18:43.342Z,102949.81
2023-05-20T00:20:45.031Z,102950.66
2023-05-20T00:22:47.090Z,102948.94
2023-05-20T00:24:50.101Z,102947.06
2023-05-20T00:26:52.284Z,102955.25
2023-05-20T00:28:53.888Z,102953.53
2023-05-20T00:30:58.710Z,102946.38
2023-05-20T00:33:00.377Z,102960.19
2023-05-20T00:35:03.071Z,102959.47
2023-05-20T00:37:05.227Z,102964.06
2023-05-20T00:39:06.866Z,102969.72
2023-05-20T00:41:10.191Z,102968.00
2023-05-20T00:43:11.921Z,102960.81
2023-05-20T00:45:13.544Z,102969.00
2023-05-20T00:47:15.644Z,102976.50
2023-05-20T00:49:17.690Z,102972.06
2023-05-20T00:51:20.092Z,102972.22
2023-05-20T00:53:22.555Z,102981.44
2023-05-20T00:55:25.010Z,102966.94
2023-05-20T00:57:28.116Z,102961.63
2023-05-20T00:59:29.877Z,102964.69
2023-05-20T01:01:31.582Z,102954.81
2023-05-20T01:03:33.975Z,102955.84
2023-05-20T01:05:36.373Z,102947.81
2023-05-20T01:07:39.894Z,102954.28
2023-05-20T01:09:41.856Z,102965.38
2023-05-20T01:11:50.752Z,102962.63
2023-05-20T01:13:58.327Z,102961.78
2023-05-20T01:16:01.515Z,102959.19
2023-05-20T01:18:03.730Z,102962.06
2023-05-20T01:20:09.256Z,102957.63
2023-05-20T01:22:12.372Z,102955.06
2023-05-20T01:24:15.332Z,102961.53
2023-05-20T01:26:16.984Z,102957.78
2023-05-20T01:28:18.905Z,102957.97
2023-05-20T01:30:20.849Z,102941.75
2023-05-20T01:32:24.991Z,102958.28
2023-05-20T01:34:27.506Z,102958.44
2023-05-20T01:36:32.812Z,102963.22
2023-05-20T01:38:36.840Z,102953.47
2023-05-20T01:40:41.577Z,102958.06
2023-05-20T01:42:44.251Z,102954.66
2023-05-20T01:44:46.070Z,102961.28
2023-05-20T01:46:49.497Z,102965.88
2023-05-20T01:48:53.003Z,102958.72
2023-05-20T01:50:54.622Z,102958.03
2023-05-20T01:52:56.276Z,102960.06
2023-05-20T01:54:58.527Z,102974.00
2023-05-20T01:57:01.423Z,102971.44
2023-05-20T01:59:03.014Z,102964.44
2023-05-20T02:01:04.797Z,102963.91
2023-05-20T02:03:06.715Z,102960.50
2023-05-20T02:05:09.603Z,102964.38
2023-05-20T02:07:11.566Z,102966.44
2023-05-20T02:09:13.156Z,102963.16
2023-05-20T02:11:14.950Z,102964.16
2023-05-20T02:13:18.036Z,102967.91
2023-05-20T02:15:19.780Z,102966.22
2023-05-20T02:17:21.405Z,102966.34
2023-05-20T02:19:23.589Z,102965.69
2023-05-20T02:21:26.344Z,102964.97
2023-05-20T02:23:28.160Z,102969.56
2023-05-20T02:25:30.088Z,102963.25
2023-05-20T02:27:31.825Z,102966.16
2023-05-20T02:29:34.939Z,102968.16
2023-05-20T02:31:36.574Z,102965.75
2023-05-20T02:33:38.243Z,102962.19
2023-05-20T02:35:41.288Z,102968.81
2023-05-20T02:37:43.283Z,102959.78
2023-05-20T02:39:45.041Z,102966.22
2023-05-20T02:41:46.702Z,102961.97
2023-05-20T02:43:48.563Z,102961.09
2023-05-20T02:45:51.634Z,102960.41
2023-05-20T02:47:53.548Z,102959.69
2023-05-20T02:49:55.332Z,102964.47
2023-05-20T02:51:56.990Z,102963.75
2023-05-20T02:53:58.601Z,102972.97
2023-05-20T02:56:00.278Z,102977.53
2023-05-20T02:58:02.106Z,102973.09
2023-05-20T03:00:05.027Z,102972.25
2023-05-20T03:02:08.763Z,102974.97
2023-05-20T03:04:10.434Z,102974.28
2023-05-20T03:06:12.195Z,102976.16
2023-05-20T03:08:14.152Z,102972.56
2023-05-20T03:10:16.102Z,102966.44
2023-05-20T03:12:17.772Z,102970.84
2023-05-20T03:14:19.446Z,102974.44
2023-05-20T03:16:21.223Z,102977.16
2023-05-20T03:18:24.556Z,102977.16
2023-05-20T03:20:26.152Z,102973.56
2023-05-20T03:22:27.755Z,102973.44
2023-05-20T03:24:29.464Z,102977.00
2023-05-20T03:26:31.195Z,102979.72
2023-05-20T03:28:33.072Z,102975.81
2023-05-20T03:30:34.809Z,102972.97
2023-05-20T03:32:36.666Z,102965.47
2023-05-20T03:34:39.713Z,102976.03
2023-05-20T03:36:41.305Z,102974.03
2023-05-20T03:38:42.923Z,102970.13
2023-05-20T03:40:44.562Z,102974.41
2023-05-20T03:42:46.344Z,102977.84
2023-05-20T03:44:48.229Z,102976.50
2023-05-20T03:46:50.760Z,102974.31
2023-05-20T03:48:52.414Z,102978.44
2023-05-20T03:50:55.761Z,102983.56
2023-05-20T03:52:57.405Z,102990.41
2023-05-20T03:54:59.094Z,102974.59
2023-05-20T03:57:01.290Z,102979.59
2023-05-20T03:59:03.108Z,102980.94
2023-05-20T04:01:05.927Z,102978.59
2023-05-20T04:03:07.590Z,102970.97
2023-05-20T04:05:09.751Z,102977.66
2023-05-20T04:07:12.700Z,102972.56
2023-05-20T04:09:14.637Z,102974.81
2023-05-20T04:11:16.330Z,102968.00
2023-05-20T04:13:17.998Z,102961.06
2023-05-20T04:15:19.972Z,102970.50
2023-05-20T04:17:21.718Z,102967.28
2023-05-20T04:19:23.809Z,102964.03
2023-05-20T04:21:25.886Z,102973.59
2023-05-20T04:23:29.171Z,102973.13
2023-05-20T04:25:31.074Z,102967.19
2023-05-20T04:27:32.623Z,102972.16
2023-05-20T04:29:34.326Z,102965.34
2023-05-20T04:31:36.313Z,102962.09
2023-05-20T04:33:38.031Z,102970.81
2023-05-20T04:35:40.049Z,102968.59
2023-05-20T04:37:41.757Z,102971.69
2023-05-20T04:39:44.838Z,102976.66
2023-05-20T04:41:46.436Z,102974.47
2023-05-20T04:43:48.150Z,102968.66
2023-05-20T04:45:50.320Z,102965.44
2023-05-20T04:47:52.462Z,102967.66
2023-05-20T04:49:54.346Z,102968.19
2023-05-20T04:51:56.011Z,102965.78
2023-05-20T04:53:57.666Z,102969.03
2023-05-20T04:56:00.659Z,102966.00
2023-05-20T04:58:02.297Z,102966.31
2023-05-20T05:00:05.057Z,102972.31
2023-05-20T05:02:06.709Z,102970.09
2023-05-20T05:04:08.375Z,102967.72
2023-05-20T05:06:10.440Z,102971.81
2023-05-20T05:08:12.269Z,102962.25
2023-05-20T05:10:14.012Z,102971.81
2023-05-20T05:12:17.031Z,102968.75
2023-05-20T05:14:19.086Z,102973.72
2023-05-20T05:16:21.054Z,102973.38
2023-05-20T05:18:23.192Z,102976.59
2023-05-20T05:20:24.858Z,102972.31
2023-05-20T05:22:26.523Z,102975.78
2023-05-20T05:24:28.151Z,102980.72
2023-05-20T05:26:30.031Z,102977.66
2023-05-20T05:28:32.913Z,102980.03
2023-05-20T05:30:34.548Z,102983.28
2023-05-20T05:32:37.842Z,102982.78
2023-05-20T05:34:39.597Z,102981.41
2023-05-20T05:36:41.541Z,102986.31
2023-05-20T05:38:43.225Z,102975.91
2023-05-20T05:40:45.124Z,102973.50
2023-05-20T05:42:46.850Z,102975.88
2023-05-20T05:44:50.201Z,102980.00
2023-05-20T05:46:51.916Z,102972.28
2023-05-20T05:48:53.797Z,102979.13
2023-05-20T05:50:55.323Z,102979.63
2023-05-20T05:52:56.952Z,102977.03
2023-05-20T05:54:58.749Z,102975.50
2023-05-20T05:57:00.687Z,102976.66
2023-05-20T05:59:04.699Z,102969.63
2023-05-20T06:01:08.048Z,102975.41
2023-05-20T06:03:09.878Z,102966.66
2023-05-20T06:05:11.781Z,102966.16
2023-05-20T06:07:13.375Z,102969.03
2023-05-20T06:09:15.205Z,102970.22
2023-05-20T06:11:17.397Z,102973.25
2023-05-20T06:13:20.758Z,102980.06
2023-05-20T06:15:22.838Z,102978.69
2023-05-20T06:17:26.577Z,102977.28
2023-05-20T06:19:28.332Z,102976.28
2023-05-20T06:21:30.047Z,102979.34
2023-05-20T06:23:31.673Z,102977.09
2023-05-20T06:25:33.615Z,102975.69
2023-05-20T06:27:35.405Z,102976.03
2023-05-20T06:29:37.097Z,102979.25
2023-05-20T06:31:39.242Z,102986.06
2023-05-20T06:33:42.567Z,102979.00
2023-05-20T06:35:44.156Z,102976.75
2023-05-20T06:37:46.377Z,102978.94
2023-05-20T06:39:48.470Z,102973.09
2023-05-20T06:41:50.066Z,102971.03
2023-05-20T06:43:53.431Z,102967.06
2023-05-20T06:45:55.315Z,102968.78
2023-05-20T06:47:59.343Z,102971.00
2023-05-20T06:50:02.558Z,102969.59
2023-05-20T06:52:05.158Z,102967.34
2023-05-20T06:54:06.998Z,102963.38
2023-05-20T06:56:09.158Z,102960.25
2023-05-20T06:58:13.395Z,102963.47
2023-05-20T07:00:15.256Z,102957.63
2023-05-20T07:02:17.425Z,102962.75
2023-05-20T07:04:18.995Z,102954.16
2023-05-20T07:06:23.056Z,102955.28
2023-05-20T07:08:24.708Z,102946.50
2023-05-20T07:10:26.712Z,102942.34
2023-05-20T07:12:28.617Z,102947.09
2023-05-20T07:14:30.373Z,102941.22
2023-05-20T07:16:32.132Z,102943.41
2023-05-20T07:18:34.303Z,102944.56
2023-05-20T07:20:36.005Z,102939.19
2023-05-20T07:22:39.218Z,102934.00
2023-05-20T07:24:41.072Z,102944.41
2023-05-20T07:26:42.725Z,102946.19
2023-05-20T07:28:45.106Z,102942.88
2023-05-20T07:30:46.741Z,102939.59
2023-05-20T07:32:49.965Z,102936.28
2023-05-20T07:34:51.934Z,102936.75
2023-05-20T07:36:55.889Z,102937.22
2023-05-20T07:39:03.875Z,102940.22
2023-05-20T07:41:07.820Z,102941.53
2023-05-20T07:43:10.541Z,102941.16
2023-05-20T07:45:12.199Z,102935.94
2023-05-20T07:47:15.130Z,102929.03
2023-05-20T07:49:16.788Z,102928.25
2023-05-20T07:51:19.576Z,102930.41
2023-05-20T07:53:21.314Z,102935.34
2023-05-20T07:55:24.660Z,102937.31
2023-05-20T07:57:27.270Z,102931.22
2023-05-20T07:59:29.062Z,102925.16
2023-05-20T08:01:30.734Z,102922.03
2023-05-20T08:03:32.617Z,102923.53
2023-05-20T08:05:38.106Z,102928.25
2023-05-20T08:07:39.736Z,102930.44
2023-05-20T08:09:41.383Z,102925.84
2023-05-20T08:11:45.786Z,102926.31
2023-05-20T08:13:49.204Z,102925.72
2023-05-20T08:15:53.196Z,102934.88
2023-05-20T08:17:54.850Z,102931.75
2023-05-20T08:19:56.816Z,102923.97
2023-05-20T08:21:58.652Z,102929.06
2023-05-20T08:24:00.213Z,102926.38
2023-05-20T08:26:02.495Z,102930.19
2023-05-20T08:28:06.099Z,102919.28
2023-05-20T08:30:09.268Z,102916.75
2023-05-20T08:32:11.049Z,102917.66
2023-05-20T08:34:12.759Z,102927.88
2023-05-20T08:36:14.564Z,102925.38
2023-05-20T08:38:16.357Z,102928.19
2023-05-20T08:40:18.215Z,102927.56
2023-05-20T08:42:22.601Z,102926.97
2023-05-20T08:44:28.108Z,102918.97
2023-05-20T08:46:31.796Z,102916.44
2023-05-20T08:48:33.945Z,102917.34
2023-05-20T08:50:35.789Z,102916.75
2023-05-20T08:52:42.796Z,102916.16
2023-05-20T08:54:46.496Z,102917.25
2023-05-20T08:56:48.113Z,102910.06
2023-05-20T08:58:50.025Z,102905.00
2023-05-20T09:00:53.772Z,102899.91
2023-05-20T09:02:57.026Z,102903.97
2023-05-20T09:05:00.211Z,102908.00
2023-05-20T09:07:01.814Z,102904.84
2023-05-20T09:09:03.503Z,102907.84
2023-05-20T09:11:05.235Z,102903.41
2023-05-20T09:13:08.216Z,102901.50
2023-05-20T09:15:10.165Z,102901.56
2023-05-20T09:17:14.021Z,102904.31
2023-05-20T09:19:17.307Z,102907.50
2023-05-20T09:21:25.950Z,102912.59
2023-05-20T09:23:29.055Z,102914.06
2023-05-20T09:25:31.179Z,102908.13
2023-05-20T09:27:32.951Z,102907.94
2023-05-20T09:29:35.278Z,102906.66
2023-05-20T09:31:37.413Z,102911.97
2023-05-20T09:33:42.360Z,102911.81
2023-05-20T09:35:44.181Z,102913.50
2023-05-20T09:37:48.244Z,102906.94
2023-05-20T09:39:57.011Z,102906.06
2023-05-20T09:42:05.703Z,102905.88
2023-05-20T09:44:08.194Z,102902.47
2023-05-20T09:46:10.407Z,102904.19
2023-05-20T09:48:13.453Z,102903.13
2023-05-20T09:50:17.752Z,102904.59
2023-05-20T09:52:21.405Z,102897.63
2023-05-20T09:54:24.131Z,102893.38
2023-05-20T09:56:27.033Z,102904.41
2023-05-20T09:58:29.746Z,102899.56
2023-05-20T10:00:31.854Z,102896.38
2023-05-20T10:02:34.500Z,102905.06
2023-05-20T10:04:38.766Z,102907.41
2023-05-20T10:07:13.087Z,102898.91
2023-05-20T10:09:27.814Z,102895.28
2023-05-20T10:11:47.309Z,102896.13
2023-05-20T10:14:02.743Z,102893.81
2023-05-20T10:16:13.856Z,102890.22
2023-05-20T10:18:38.433Z,102899.50
2023-05-20T10:20:47.628Z,102889.97
2023-05-20T10:22:55.940Z,102886.16
2023-05-20T10:25:07.111Z,102888.00
2023-05-20T10:27:10.097Z,102886.06
2023-05-20T10:29:16.204Z,102877.56
2023-05-20T10:31:20.669Z,102874.56
2023-05-20T10:33:22.568Z,102879.19
2023-05-20T10:35:25.739Z,102875.78
2023-05-20T10:37:29.570Z,102875.75
2023-05-20T10:39:32.693Z,102872.34
2023-05-20T10:41:35.917Z,102878.91
2023-05-20T10:43:37.886Z,102881.84
2023-05-20T10:45:50.346Z,102877.97
2023-05-20T10:47:54.934Z,102865.19
2023-05-20T10:49:58.376Z,102863.28
2023-05-20T10:52:00.378Z,102857.69
2023-05-20T10:54:02.280Z,102853.34
2023-05-20T10:56:04.348Z,102852.19
2023-05-20T10:58:08.138Z,102843.41
2023-05-20T11:00:10.772Z,102841.59
2023-05-20T11:02:15.178Z,102842.38
2023-05-20T11:04:17.551Z,102833.34
2023-05-20T11:06:19.599Z,102826.59
2023-05-20T11:08:28.970Z,102825.16
2023-05-20T11:10:31.497Z,102821.75
2023-05-20T11:12:33.682Z,102811.59
2023-05-20T11:14:37.237Z,102815.91
2023-05-20T11:16:39.117Z,102814.19
2023-05-20T11:18:40.902Z,102824.63
2023-05-20T11:20:42.595Z,102819.97
2023-05-20T11:22:46.095Z,102819.75
2023-05-20T11:24:48.460Z,102817.25
2023-05-20T11:26:51.109Z,102815.47
2023-05-20T11:28:53.237Z,102816.56
2023-05-20T11:30:56.827Z,102805.34
2023-05-20T11:32:59.891Z,102813.84
2023-05-20T11:35:02.972Z,102809.03
2023-05-20T11:37:07.356Z,102805.75
2023-05-20T11:39:10.266Z,102801.91
2023-05-20T11:41:11.931Z,102800.81
2023-05-20T11:43:14.839Z,102788.38
2023-05-20T11:45:16.487Z,102785.97
2023-05-20T11:47:25.167Z,102787.75
2023-05-20T11:49:26.724Z,102789.72
2023-05-20T11:51:30.408Z,102783.31
2023-05-20T11:53:32.132Z,102793.31
2023-05-20T11:55:34.355Z,102784.75
2023-05-20T11:57:36.159Z,102794.53
2023-05-20T11:59:38.167Z,102791.03
2023-05-20T12:01:40.381Z,102788.63
2023-05-20T12:03:43.751Z,102793.19
2023-05-20T12:05:45.990Z,102796.94
2023-05-20T12:07:47.612Z,102787.03
2023-05-20T12:09:49.445Z,102787.75
2023-05-20T12:11:51.037Z,102793.06
2023-05-20T12:13:53.161Z,102795.22
2023-05-20T12:15:55.104Z,102799.34
2023-05-20T12:17:57.187Z,102800.41
2023-05-20T12:20:00.181Z,102799.22
2023-05-20T12:22:02.645Z,102809.38
2023-05-20T12:24:04.693Z,102807.91
2023-05-20T12:26:06.375Z,102800.94
2023-05-20T12:28:08.417Z,102804.78
2023-05-20T12:30:12.097Z,102802.00
2023-05-20T12:32:13.763Z,102803.47
2023-05-20T12:34:15.626Z,102803.94
2023-05-20T12:36:19.583Z,102804.56
2023-05-20T12:38:21.219Z,102805.13
2023-05-20T12:40:22.850Z,102804.28
2023-05-20T12:42:24.438Z,102803.84
2023-05-20T12:44:27.151Z,102800.78
2023-05-20T12:46:29.371Z,102793.94
2023-05-20T12:48:31.006Z,102797.06
2023-05-20T12:50:32.943Z,102797.78
2023-05-20T12:52:36.217Z,102789.28
2023-05-20T12:54:37.850Z,102790.72
2023-05-20T12:56:39.421Z,102795.00
2023-05-20T12:58:42.131Z,102789.19
2023-05-20T13:00:44.449Z,102786.41
2023-05-20T13:02:46.480Z,102788.09
2023-05-20T13:04:48.153Z,102780.63
2023-05-20T13:06:50.218Z,102775.56
2023-05-20T13:08:53.322Z,102775.56
2023-05-20T13:10:55.159Z,102771.66
2023-05-20T13:12:57.232Z,102775.06
2023-05-20T13:14:58.792Z,102773.94
2023-05-20T13:17:00.822Z,102766.47
2023-05-20T13:19:02.903Z,102770.81
2023-05-20T13:21:04.744Z,102771.09
2023-05-20T13:23:06.835Z,102768.50
2023-05-20T13:25:10.914Z,102771.94
2023-05-20T13:27:12.780Z,102770.81
2023-05-20T13:29:14.537Z,102766.38
2023-05-20T13:31:16.767Z,102762.94
2023-05-20T13:33:18.753Z,102762.09
2023-05-20T13:35:22.346Z,102757.88
2023-05-20T13:37:23.970Z,102745.06
2023-05-20T13:39:25.848Z,102750.41
2023-05-20T13:41:29.112Z,102747.63
2023-05-20T13:43:33.560Z,102741.22
2023-05-20T13:45:35.254Z,102740.13
2023-05-20T13:47:36.967Z,102734.22
2023-05-20T13:49:38.787Z,102747.50
2023-05-20T13:51:42.128Z,102736.03
2023-05-20T13:53:44.064Z,102741.25
2023-05-20T13:55:45.856Z,102732.06
2023-05-20T13:57:49.002Z,102726.50
2023-05-20T13:59:52.664Z,102727.00
2023-05-20T14:01:54.671Z,102720.38
2023-05-20T14:03:56.469Z,102721.44
2023-05-20T14:05:59.189Z,102713.13
2023-05-20T14:08:02.412Z,102725.44
2023-05-20T14:10:05.079Z,102717.44
2023-05-20T14:12:07.354Z,102712.00
2023-05-20T14:14:10.442Z,102720.06
2023-05-20T14:16:12.078Z,102724.06
2023-05-20T14:18:13.807Z,102717.22
2023-05-20T14:20:16.562Z,102719.72
2023-05-20T14:22:18.233Z,102710.31
2023-05-20T14:24:21.372Z,102713.09
2023-05-20T14:26:24.762Z,102706.69
2023-05-20T14:28:26.504Z,102710.53
2023-05-20T14:30:29.660Z,102701.81
2023-05-20T14:32:31.427Z,102695.41
2023-05-20T14:34:33.585Z,102694.22
2023-05-20T14:36:35.751Z,102695.06
2023-05-20T14:38:37.401Z,102698.13
2023-05-20T14:40:39.060Z,102690.63
2023-05-20T14:42:40.793Z,102688.94
2023-05-20T14:44:42.360Z,102686.16
2023-05-20T14:46:45.405Z,102682.31
2023-05-20T14:48:47.183Z,102687.84
2023-05-20T14:50:49.873Z,102682.53
2023-05-20T14:52:51.608Z,102678.06
2023-05-20T14:54:53.588Z,102675.19
2023-05-20T14:56:55.447Z,102677.88
2023-05-20T14:58:57.085Z,102675.81
2023-05-20T15:00:58.997Z,102666.56
2023-05-20T15:03:02.193Z,102670.66
2023-05-20T15:05:04.300Z,102658.38
2023-05-20T15:07:06.184Z,102659.94
2023-05-20T15:09:07.911Z,102662.97
2023-05-20T15:11:09.807Z,102664.88
2023-05-20T15:13:11.652Z,102664.53
2023-05-20T15:15:13.769Z,102666.72
2023-05-20T15:17:15.430Z,102669.72
2023-05-20T15:19:18.670Z,102663.81
2023-05-20T15:21:20.628Z,102659.34
2023-05-20T15:23:22.353Z,102660.47
2023-05-20T15:25:24.210Z,102661.56
2023-05-20T15:27:26.286Z,102655.66
2023-05-20T15:29:28.710Z,102665.19
2023-05-20T15:31:30.625Z,102661.91
2023-05-20T15:33:32.853Z,102673.38
2023-05-20T15:35:36.136Z,102665.66
2023-05-20T15:37:37.982Z,102661.56
2023-05-20T15:39:39.922Z,102663.59
2023-05-20T15:41:41.539Z,102655.03
2023-05-20T15:43:43.759Z,102647.78
2023-05-20T15:45:46.071Z,102655.00
2023-05-20T15:47:47.943Z,102641.94
2023-05-20T15:49:49.744Z,102637.47
2023-05-20T15:52:02.919Z,102629.13
2023-05-20T15:54:05.405Z,102631.03
2023-05-20T15:56:09.015Z,102622.44
2023-05-20T15:58:10.692Z,102621.34
2023-05-20T16:00:13.750Z,102618.66
2023-05-20T16:02:16.681Z,102618.97
2023-05-20T16:04:19.738Z,102613.72
2023-05-20T16:06:22.417Z,102610.81
2023-05-20T16:08:27.131Z,102613.44
2023-05-20T16:10:28.866Z,102615.84
2023-05-20T16:12:32.679Z,102617.59
2023-05-20T16:14:34.670Z,102607.47
2023-05-20T16:16:36.819Z,102609.22
2023-05-20T16:18:38.532Z,102615.69
2023-05-20T16:20:40.365Z,102604.72
2023-05-20T16:22:42.470Z,102607.09
2023-05-20T16:24:45.666Z,102599.72
2023-05-20T16:26:47.290Z,102602.09
2023-05-20T16:28:51.314Z,102598.72
2023-05-20T16:30:53.278Z,102610.00
2023-05-20T16:32:55.142Z,102606.16
2023-05-20T16:34:56.961Z,102602.56
2023-05-20T16:36:59.545Z,102608.09
2023-05-20T16:39:01.128Z,102600.66
2023-05-20T16:41:04.275Z,102598.72
2023-05-20T16:43:07.259Z,102591.50
2023-05-20T16:45:09.805Z,102590.91
2023-05-20T16:47:11.433Z,102588.56
2023-05-20T16:49:13.473Z,102589.03
2023-05-20T16:51:15.294Z,102590.13
2023-05-20T16:53:16.956Z,102591.19
2023-05-20T16:55:18.801Z,102584.22
2023-05-20T16:57:22.097Z,102576.97
2023-05-20T16:59:24.052Z,102585.75
2023-05-20T17:01:25.839Z,102581.50
2023-05-20T17:03:27.767Z,102567.03
2023-05-20T17:05:29.659Z,102572.19
2023-05-20T17:07:31.425Z,102572.00
2023-05-20T17:09:33.374Z,102563.59
2023-05-20T17:11:35.466Z,102569.53
2023-05-20T17:13:38.880Z,102567.88
2023-05-20T17:15:40.685Z,102555.34
2023-05-20T17:17:42.349Z,102564.72
2023-05-20T17:19:46.429Z,102560.72
2023-05-20T17:21:48.491Z,102562.25
2023-05-20T17:23:50.835Z,102561.22
2023-05-20T17:25:52.742Z,102561.69
2023-05-20T17:27:54.576Z,102561.06
2023-05-20T17:29:57.815Z,102558.47
2023-05-20T17:31:59.707Z,102553.94
2023-05-20T17:34:01.383Z,102566.38
2023-05-20T17:36:03.319Z,102562.47
2023-05-20T17:38:04.947Z,102555.81
2023-05-20T17:40:07.818Z,102552.38
2023-05-20T17:42:10.245Z,102550.53
2023-05-20T17:44:11.994Z,102554.28
2023-05-20T17:46:15.639Z,102553.09
2023-05-20T17:48:17.421Z,102553.84
2023-05-20T17:50:19.043Z,102562.25
2023-05-20T17:52:20.912Z,102558.53
2023-05-20T17:54:23.068Z,102548.44
2023-05-20T17:56:24.842Z,102547.44
2023-05-20T17:58:28.663Z,102546.47
2023-05-20T18:00:30.799Z,102545.94
2023-05-20T18:02:34.023Z,102545.78
2023-05-20T18:04:36.049Z,102552.44
2023-05-20T18:06:37.740Z,102536.81
2023-05-20T18:08:39.385Z,102541.94
2023-05-20T18:10:41.282Z,102546.19
2023-05-20T18:12:42.960Z,102536.47
2023-05-20T18:14:44.574Z,102544.16
2023-05-20T18:16:46.148Z,102543.31
2023-05-20T18:18:49.191Z,102538.25
2023-05-20T18:20:51.182Z,102533.81
2023-05-20T18:22:53.050Z,102537.63
2023-05-20T18:24:54.990Z,102529.59
2023-05-20T18:26:57.901Z,102525.59
2023-05-20T18:28:59.589Z,102531.31
2023-05-20T18:31:01.351Z,102527.09
2023-05-20T18:33:03.287Z,102534.53
2023-05-20T18:35:08.074Z,102542.94
2023-05-20T18:37:09.956Z,102539.53
2023-05-20T18:39:11.824Z,102542.72
2023-05-20T18:41:14.576Z,102548.41
2023-05-20T18:43:16.667Z,102533.19
2023-05-20T18:45:18.519Z,102535.28
2023-05-20T18:47:20.737Z,102537.16
2023-05-20T18:49:22.716Z,102529.09
2023-05-20T18:51:25.929Z,102531.00
2023-05-20T18:53:27.822Z,102524.81
2023-05-20T18:55:29.916Z,102523.09
2023-05-20T18:57:31.837Z,102520.75
2023-05-20T18:59:33.858Z,102515.22
2023-05-20T19:01:35.754Z,102523.63
2023-05-20T19:03:37.551Z,102518.72
2023-05-20T19:05:39.926Z,102514.91
2023-05-20T19:07:43.485Z,102514.84
2023-05-20T19:09:45.258Z,102515.88
2023-05-20T19:11:46.935Z,102506.38
2023-05-20T19:13:48.594Z,102503.56
2023-05-20T19:15:51.673Z,102508.84
2023-05-20T19:17:53.661Z,102509.63
2023-05-20T19:19:55.597Z,102510.44
2023-05-20T19:21:57.150Z,102516.75
2023-05-20T19:24:01.286Z,102517.53
2023-05-20T19:26:02.861Z,102516.47
2023-05-20T19:28:05.031Z,102515.16
2023-05-20T19:30:10.549Z,102512.16
2023-05-20T19:32:12.727Z,102522.91
2023-05-20T19:34:14.787Z,102517.16
2023-05-20T19:36:17.314Z,102514.31
2023-05-20T19:38:19.226Z,102516.81
2023-05-20T19:40:22.303Z,102526.69
2023-05-20T19:42:24.185Z,102531.91
2023-05-20T19:44:25.697Z,102527.22
2023-05-20T19:46:27.822Z,102530.53
2023-05-20T19:48:29.530Z,102522.91
2023-05-20T19:50:31.277Z,102526.03
2023-05-20T19:52:33.133Z,102521.13
2023-05-20T19:54:35.192Z,102521.72
2023-05-20T19:56:38.709Z,102522.31
2023-05-20T19:58:40.365Z,102519.13
2023-05-20T20:00:42.007Z,102527.72
2023-05-20T20:02:43.920Z,102529.13
2023-05-20T20:04:45.700Z,102533.97
2023-05-20T20:06:47.370Z,102522.38
2023-05-20T20:08:49.356Z,102530.13
2023-05-20T20:10:51.292Z,102522.09
2023-05-20T20:12:54.205Z,102523.34
2023-05-20T20:14:56.021Z,102515.31
2023-05-20T20:16:58.580Z,102517.41
2023-05-20T20:19:01.892Z,102521.34
2023-05-20T20:21:05.000Z,102512.50
2023-05-20T20:23:07.139Z,102517.31
2023-05-20T20:25:09.414Z,102515.63
2023-05-20T20:27:11.085Z,102512.41
2023-05-20T20:29:14.369Z,102515.34
2023-05-20T20:31:15.977Z,102504.56
2023-05-20T20:33:17.900Z,102511.09
2023-05-20T20:35:19.819Z,102503.25
2023-05-20T20:37:21.463Z,102502.44
2023-05-20T20:39:23.323Z,102496.28
2023-05-20T20:41:25.200Z,102499.41
2023-05-20T20:43:27.109Z,102498.75
2023-05-20T20:45:30.453Z,102503.56
2023-05-20T20:47:32.103Z,102504.59
2023-05-20T20:49:33.703Z,102494.88
2023-05-20T20:51:35.355Z,102496.97
2023-05-20T20:53:37.209Z,102493.38
2023-05-20T20:55:39.376Z,102500.94
2023-05-20T20:57:41.262Z,102495.66
2023-05-20T20:59:43.476Z,102496.88
2023-05-20T21:01:46.705Z,102494.31
2023-05-20T21:03:48.379Z,102494.50
2023-05-20T21:05:50.232Z,102481.84
2023-05-20T21:07:52.763Z,102486.66
2023-05-20T21:09:54.450Z,102487.91
2023-05-20T21:11:56.385Z,102481.56
2023-05-20T21:13:58.092Z,102486.38
2023-05-20T21:16:00.518Z,102478.38
2023-05-20T21:18:03.796Z,102478.56
2023-05-20T21:20:07.218Z,102484.03
2023-05-20T21:22:08.932Z,102476.84
2023-05-20T21:24:10.605Z,102482.53
2023-05-20T21:26:12.563Z,102478.09
2023-05-20T21:28:14.887Z,102477.22
2023-05-20T21:30:16.597Z,102484.59
2023-05-20T21:32:18.206Z,102477.44
2023-05-20T21:34:21.190Z,102482.06
2023-05-20T21:36:22.838Z,102477.63
2023-05-20T21:38:24.829Z,102474.88
2023-05-20T21:40:26.525Z,102479.50
2023-05-20T21:42:28.121Z,102472.34
2023-05-20T21:44:29.936Z,102474.41
2023-05-20T21:46:31.533Z,102473.56
2023-05-20T21:48:33.259Z,102475.44
2023-05-20T21:50:36.342Z,102471.03
2023-05-20T21:52:38.077Z,102471.03
2023-05-20T21:54:39.777Z,102471.03
2023-05-20T21:56:41.355Z,102476.69
2023-05-20T21:58:43.079Z,102477.53
2023-05-20T22:00:44.744Z,102476.84
2023-05-20T22:02:46.940Z,102480.66
2023-05-20T22:04:48.518Z,102483.41
2023-05-20T22:06:51.544Z,102471.59
2023-05-20T22:08:53.358Z,102472.63
2023-05-20T22:10:55.105Z,102473.66
2023-05-20T22:12:56.759Z,102484.59
2023-05-20T22:14:58.433Z,102478.31
2023-05-20T22:17:01.112Z,102479.13
2023-05-20T22:19:02.855Z,102473.66
2023-05-20T22:21:04.940Z,102470.28
2023-05-20T22:23:07.814Z,102470.44
2023-05-20T22:25:10.042Z,102472.53
2023-05-20T22:27:12.143Z,102469.13
2023-05-20T22:29:14.648Z,102473.94
2023-05-20T22:31:16.728Z,102467.63
2023-05-20T22:33:18.445Z,102477.72
2023-05-20T22:35:20.081Z,102474.13
2023-05-20T22:37:21.769Z,102465.28
2023-05-20T22:39:24.992Z,102462.53
2023-05-20T22:41:26.581Z,102458.09
2023-05-20T22:43:28.625Z,102458.09
2023-05-20T22:45:30.239Z,102466.31
2023-05-20T22:47:32.155Z,102461.88
2023-05-20T22:49:34.281Z,102454.72
2023-05-20T22:51:36.205Z,102455.56
2023-05-20T22:53:38.024Z,102455.75
2023-05-20T22:55:41.209Z,102455.91
2023-05-20T22:57:43.046Z,102450.44
2023-05-20T22:59:44.609Z,102453.19
2023-05-20T23:01:46.263Z,102450.44
2023-05-20T23:03:47.884Z,102446.88
2023-05-20T23:05:49.543Z,102444.97
2023-05-20T23:07:51.489Z,102449.63
2023-05-20T23:09:53.440Z,102441.59
2023-05-20T23:11:56.422Z,102447.91
2023-05-20T23:13:58.216Z,102448.09
2023-05-20T23:15:59.847Z,102445.34
2023-05-20T23:18:01.511Z,102442.63